Météo Nord-Pas-de-Calais   La météo au plus près de chez vous

Station météorologique

Observations météo à Auxerre-Perrigny (89295)

89295001 152 m Dernier relevé à 15:12
27.3°C
Humidité 44 % Vent 11.5 km/h 1022.7 hPa

Journée consultée

Jeudi 3 Septembre 2026

Synthèse de la journée

Périodes de référence en UTC

Température maximale

27.6°C

à 15:06

06h 06h

Température minimale

12.4°C

à 06:06

18h 18h

Rafale maximale

30 km/h

à 14:54

00h 00h

Précipitations

0 mm

Cumul quotidien

06h 06h

Ensoleillement

7h 24 mins

Durée quotidienne

00h 00h

Graphiques de la journée

Heure locale Réduire

Données détaillées

Relevés météo

Pas de 6 minutes Afficher les relevés infra-horaires
Relevés météo détaillés à Auxerre-Perrigny pour le Jeudi 3 Septembre 2026
Heure Température °C Point de rosée °C Humidité % Vent moyen (raf.), km/h Précipitations mm Température à 10 cm °C Température à 20 cm °C Température à 50 cm °C Température à 100 cm °C Visibilité m État du sol   Hauteur neige cm Ensoleillement min Rayonnement global W/m² Pression hPa
15:12 27.3 °C 13.6 °C 43 % 13 km/h (23 km/h) 0 mm0 mm 24.5 °C 23.6 °C 22 °C 21.6 °C 20000 m 0   0 cm 6 min 236.1 W/m² 1022.4 hPa
15:06 27.6 °C 13.5 °C 42 % 9 km/h (22 km/h) 0 mm0 mm 24.4 °C 23.6 °C 22 °C 21.6 °C 20000 m 0   0 cm 5 min 227.5 W/m² 1022.4 hPa
15:00 27.2 °C 13.2 °C 42 % 12 km/h (30 km/h) 0 mm0 mm 24.3 °C 23.5 °C 22 °C 21.6 °C 20000 m 0   0 cm 6 min 271.9 W/m² 1022.4 hPa
14:54 27.1 °C 13.4 °C 43 % 15 km/h (30 km/h) 0 mm0 mm 24.2 °C 23.4 °C 22 °C 21.6 °C 20000 m 0   0 cm 6 min 236 W/m² 1022.4 hPa
14:48 27.3 °C 13.3 °C 42 % 12 km/h (22 km/h) 0 mm0 mm 24.2 °C 23.4 °C 22 °C 21.6 °C 19650 m 0   0 cm 6 min 269.6 W/m² 1022.4 hPa
14:42 26.8 °C 13.2 °C 43 % 13 km/h (24 km/h) 0 mm0 mm 24.1 °C 23.3 °C 22 °C 21.6 °C 20000 m 0   0 cm 6 min 251.6 W/m² 1022.4 hPa
14:36 26.8 °C 13.2 °C 43 % 14 km/h (24 km/h) 0 mm0 mm 24 °C 23.3 °C 22 °C 21.6 °C 20000 m 0   0 cm 6 min 242.1 W/m² 1022.5 hPa
14:30 26.7 °C 13.1 °C 43 % 14 km/h (26 km/h) 0 mm0 mm 23.9 °C 23.2 °C 22 °C 21.6 °C 20000 m 0   0 cm 6 min 267.2 W/m² 1022.5 hPa
14:24 26.6 °C 13.3 °C 44 % 17 km/h (27 km/h) 0 mm0 mm 23.9 °C 23.1 °C 22 °C 21.6 °C 20000 m 0   0 cm 6 min 261.6 W/m² 1022.5 hPa
14:18 26.4 °C 12.8 °C 43 % 13 km/h (27 km/h) 0 mm0 mm 23.8 °C 23.1 °C 22 °C 21.6 °C 20000 m 0   0 cm 6 min 262.7 W/m² 1022.6 hPa
14:12 26.3 °C 13.1 °C 44 % 12 km/h (22 km/h) 0 mm0 mm 23.7 °C 23 °C 22 °C 21.6 °C 20000 m 0   0 cm 5 min 249.1 W/m² 1022.7 hPa
14:06 26.1 °C 12.9 °C 44 % 12 km/h (22 km/h) 0 mm0 mm 23.6 °C 23 °C 22 °C 21.6 °C 20000 m 0   0 cm 6 min 248.8 W/m² 1022.7 hPa
14:00 26.2 °C 13 °C 44 % 11 km/h (21 km/h) 0 mm0 mm 23.6 °C 22.9 °C 22 °C 21.6 °C 20000 m 0   0 cm 6 min 229.9 W/m² 1022.8 hPa
13:54 26.3 °C 12.7 °C 43 % 12 km/h (21 km/h) 0 mm0 mm 23.6 °C 22.8 °C 22.1 °C 21.6 °C 20000 m 0   0 cm 5 min 236.7 W/m² 1022.8 hPa
13:48 26.2 °C 13 °C 44 % 11 km/h (21 km/h) 0 mm0 mm 23.5 °C 22.7 °C 22 °C 21.6 °C 20000 m 0   0 cm 6 min 271 W/m² 1022.8 hPa
13:42 26.2 °C 13 °C 44 % 10 km/h (19 km/h) 0 mm0 mm 23.4 °C 22.7 °C 22.1 °C 21.6 °C 20000 m 0   0 cm 6 min 272.9 W/m² 1022.9 hPa
13:36 25.6 °C 12.4 °C 44 % 11 km/h (19 km/h) 0 mm0 mm 23.3 °C 22.6 °C 22.1 °C 21.6 °C 20000 m 0   0 cm 6 min 257 W/m² 1022.9 hPa
13:30 25.3 °C 12.2 °C 44 % 12 km/h (21 km/h) 0 mm0 mm 23.2 °C 22.5 °C 22.1 °C 21.6 °C 19840 m 0   0 cm 6 min 223.3 W/m² 1022.9 hPa
13:24 25.1 °C 11.6 °C 43 % 13 km/h (21 km/h) 0 mm0 mm 23.2 °C 22.4 °C 22.1 °C 21.6 °C 19840 m 0   0 cm 6 min 228.5 W/m² 1023 hPa
13:18 25.4 °C 11.9 °C 43 % 16 km/h (25 km/h) 0 mm0 mm 23.1 °C 22.4 °C 22.1 °C 21.6 °C 20000 m 0   0 cm 6 min 240.7 W/m² 1023 hPa
13:12 25.4 °C 11.9 °C 43 % 15 km/h (25 km/h) 0 mm0 mm 23 °C 22.3 °C 22.1 °C 21.6 °C 20000 m 0   0 cm 6 min 262.2 W/m² 1023.1 hPa
13:06 25.2 °C 11.4 °C 42 % 14 km/h (21 km/h) 0 mm0 mm 22.9 °C 22.2 °C 22.1 °C 21.6 °C 20000 m 0   0 cm 5 min 242.7 W/m² 1023.1 hPa
13:00 25 °C 10.8 °C 41 % 14 km/h (21 km/h) 0 mm0 mm 22.7 °C 22.1 °C 22.1 °C 21.6 °C 20000 m 0   0 cm 5 min 205.4 W/m² 1023.2 hPa
12:54 25.5 °C 10.5 °C 39 % 13 km/h (21 km/h) 0 mm0 mm 22.6 °C 22.1 °C 22.1 °C 21.6 °C 20000 m 0   0 cm 6 min 262.5 W/m² 1023.2 hPa
12:48 25.3 °C 10.7 °C 40 % 14 km/h (21 km/h) 0 mm0 mm 22.5 °C 21.9 °C 22.1 °C 21.6 °C 20000 m 0   0 cm 6 min 257.1 W/m² 1023.3 hPa
12:42 25 °C 10.8 °C 41 % 17 km/h (27 km/h) 0 mm0 mm 22.4 °C 21.9 °C 22.1 °C 21.6 °C 20000 m 0   0 cm 6 min 264.8 W/m² 1023.4 hPa
12:36 24.9 °C 10.4 °C 40 % 15 km/h (26 km/h) 0 mm0 mm 22.3 °C 21.8 °C 22.1 °C 21.6 °C 20000 m 0   0 cm 6 min 260.7 W/m² 1023.5 hPa
12:30 24.9 °C 11.1 °C 42 % 14 km/h (24 km/h) 0 mm0 mm 22.2 °C 21.7 °C 22.1 °C 21.6 °C 20000 m 0   0 cm 6 min 249.3 W/m² 1023.5 hPa
12:24 24.9 °C 11.8 °C 44 % 14 km/h (24 km/h) 0 mm0 mm 22.1 °C 21.6 °C 22.2 °C 21.6 °C 20000 m 0   0 cm 6 min 252.5 W/m² 1023.4 hPa
12:18 24.4 °C 11.7 °C 45 % 15 km/h (24 km/h) 0 mm0 mm 22 °C 21.5 °C 22.1 °C 21.6 °C 20000 m 0   0 cm 6 min 251.7 W/m² 1023.5 hPa
12:12 24.2 °C 11.8 °C 46 % 14 km/h (22 km/h) 0 mm0 mm 21.9 °C 21.5 °C 22.1 °C 21.6 °C 20000 m 0   0 cm 5 min 206.4 W/m² 1023.7 hPa
12:06 24.1 °C 11.8 °C 46 % 15 km/h (24 km/h) 0 mm0 mm 21.8 °C 21.4 °C 22.2 °C 21.6 °C 20000 m 0   0 cm 4 min 194.4 W/m² 1023.7 hPa
12:00 24.1 °C 12.1 °C 47 % 16 km/h (26 km/h) 0 mm0 mm 21.7 °C 21.3 °C 22.2 °C 21.6 °C 20000 m 0   0 cm 5 min 225.6 W/m² 1023.6 hPa
11:54 24 °C 12 °C 47 % 17 km/h (26 km/h) 0 mm0 mm 21.6 °C 21.3 °C 22.2 °C 21.6 °C 20000 m 0   0 cm 6 min 230.9 W/m² 1023.6 hPa
11:48 24 °C 12.3 °C 48 % 17 km/h (25 km/h) 0 mm0 mm 21.5 °C 21.2 °C 22.2 °C 21.6 °C 20000 m 0   0 cm 6 min 246.1 W/m² 1023.7 hPa
11:42 23.9 °C 12.2 °C 48 % 14 km/h (23 km/h) 0 mm0 mm 21.4 °C 21.1 °C 22.2 °C 21.6 °C 20000 m 0   0 cm 3 min 186.1 W/m² 1023.7 hPa
11:36 23.7 °C 12.3 °C 49 % 14 km/h (26 km/h) 0 mm0 mm 21.3 °C 21 °C 22.2 °C 21.6 °C 20000 m 0   0 cm 3 min 178.6 W/m² 1023.8 hPa
11:30 24 °C 12.9 °C 50 % 14 km/h (27 km/h) 0 mm0 mm 21.2 °C 20.9 °C 22.2 °C 21.6 °C 19620 m 0   0 cm 6 min 245.9 W/m² 1023.8 hPa
11:24 23.5 °C 12.5 °C 50 % 16 km/h (28 km/h) 0 mm0 mm 21 °C 20.9 °C 22.2 °C 21.6 °C 20000 m 0   0 cm 4 min 177.9 W/m² 1023.8 hPa
11:18 23.8 °C 12.4 °C 49 % 14 km/h (25 km/h) 0 mm0 mm 20.9 °C 20.8 °C 22.2 °C 21.6 °C 20000 m 0   0 cm 6 min 232.5 W/m² 1023.8 hPa
11:12 23.5 °C 12.2 °C 49 % 14 km/h (23 km/h) 0 mm0 mm 20.8 °C 20.8 °C 22.2 °C 21.6 °C 20000 m 0   0 cm 6 min 218.4 W/m² 1023.8 hPa
11:06 23.7 °C 12.7 °C 50 % 10 km/h (19 km/h) 0 mm0 mm 20.7 °C 20.7 °C 22.3 °C 21.6 °C 20000 m 0   0 cm 6 min 208.1 W/m² 1023.8 hPa
11:00 23.4 °C 12.7 °C 51 % 9 km/h (19 km/h) 0 mm0 mm 20.6 °C 20.7 °C 22.2 °C 21.6 °C 20000 m 0   0 cm 6 min 197.3 W/m² 1023.7 hPa
10:54 23.2 °C 12.5 °C 51 % 9 km/h (16 km/h) 0 mm0 mm 20.6 °C 20.6 °C 22.2 °C 21.6 °C 20000 m 0   0 cm 6 min 197.5 W/m² 1023.8 hPa
10:48 22.9 °C 12.8 °C 53 % 6 km/h (15 km/h) 0 mm0 mm 20.5 °C 20.6 °C 22.2 °C 21.6 °C 20000 m 0   0 cm 6 min 195.1 W/m² 1023.9 hPa
10:42 22.4 °C 12.9 °C 55 % 5 km/h (10 km/h) 0 mm0 mm 20.4 °C 20.5 °C 22.2 °C 21.6 °C 20000 m 0   0 cm 6 min 187.5 W/m² 1023.8 hPa
10:36 22.2 °C 13 °C 56 % 5 km/h (9 km/h) 0 mm0 mm 20.3 °C 20.5 °C 22.3 °C 21.6 °C 20000 m 0   0 cm 6 min 183.5 W/m² 1023.7 hPa
10:30 21.8 °C 13.2 °C 58 % 4 km/h (8 km/h) 0 mm0 mm 20.2 °C 20.5 °C 22.3 °C 21.6 °C 20000 m 0   0 cm 6 min 178 W/m² 1023.7 hPa
10:24 21.4 °C 13.1 °C 59 % 5 km/h (11 km/h) 0 mm0 mm 20.2 °C 20.4 °C 22.3 °C 21.6 °C 20000 m 0   0 cm 6 min 172.3 W/m² 1023.8 hPa
10:18 21.2 °C 12.6 °C 58 % 6 km/h (11 km/h) 0 mm0 mm 20.1 °C 20.4 °C 22.3 °C 21.6 °C 20000 m 0   0 cm 6 min 167.3 W/m² 1023.8 hPa
10:12 20.9 °C 12.8 °C 60 % 4 km/h (8 km/h) 0 mm0 mm 20 °C 20.4 °C 22.3 °C 21.6 °C 20000 m 0   0 cm 6 min 161.7 W/m² 1023.7 hPa
10:06 20.7 °C 12.4 °C 59 % 5 km/h (10 km/h) 0 mm0 mm 20 °C 20.4 °C 22.3 °C 21.6 °C 20000 m 0   0 cm 6 min 156.3 W/m² 1023.7 hPa
10:00 20.4 °C 12.6 °C 61 % 6 km/h (11 km/h) 0 mm0 mm 20 °C 20.4 °C 22.3 °C 21.6 °C 20000 m 0   0 cm 6 min 150.7 W/m² 1023.8 hPa
09:54 20.1 °C 12.1 °C 60 % 6 km/h (11 km/h) 0 mm0 mm 19.9 °C 20.4 °C 22.3 °C 21.6 °C 20000 m 0   0 cm 6 min 145.1 W/m² 1023.9 hPa
09:48 19.9 °C 12.2 °C 61 % 6 km/h (11 km/h) 0 mm0 mm 19.9 °C 20.3 °C 22.3 °C 21.6 °C 20000 m 0   0 cm 6 min 139.1 W/m² 1023.9 hPa
09:42 19.7 °C 12.5 °C 63 % 6 km/h (14 km/h) 0 mm0 mm 19.8 °C 20.3 °C 22.3 °C 21.6 °C 20000 m 0   0 cm 6 min 133.3 W/m² 1023.9 hPa
09:36 19.5 °C 12 °C 62 % 6 km/h (14 km/h) 0 mm0 mm 19.9 °C 20.3 °C 22.3 °C 21.6 °C 20000 m 0   0 cm 6 min 127.4 W/m² 1024 hPa
09:30 19.3 °C 12.1 °C 63 % 6 km/h (10 km/h) 0 mm0 mm 19.8 °C 20.3 °C 22.3 °C 21.6 °C 20000 m 0   0 cm 6 min 121.2 W/m² 1023.8 hPa
09:24 19.1 °C 11.6 °C 62 % 6 km/h (11 km/h) 0 mm0 mm 19.8 °C 20.3 °C 22.3 °C 21.6 °C 20000 m 0   0 cm 6 min 114.9 W/m² 1023.9 hPa
09:18 18.9 °C 12.4 °C 66 % 6 km/h (11 km/h) 0 mm0 mm 19.8 °C 20.3 °C 22.3 °C 21.6 °C 20000 m 0   0 cm 6 min 108.8 W/m² 1023.9 hPa
09:12 18.4 °C 12.2 °C 67 % 6 km/h (9 km/h) 0 mm0 mm 19.8 °C 20.4 °C 22.3 °C 21.6 °C 20000 m 0   0 cm 6 min 102.6 W/m² 1024 hPa
09:06 18.3 °C 12.1 °C 67 % 7 km/h (10 km/h) 0 mm0 mm 19.8 °C 20.4 °C 22.3 °C 21.6 °C 20000 m 0   0 cm 6 min 96.4 W/m² 1024 hPa
09:00 18 °C 11.8 °C 67 % 7 km/h (10 km/h) 0 mm0 mm 19.8 °C 20.4 °C 22.4 °C 21.6 °C 20000 m 0   0 cm 6 min 90.4 W/m² 1024 hPa
08:54 17.8 °C 12 °C 69 % 6 km/h (10 km/h) 0 mm0 mm 19.8 °C 20.4 °C 22.4 °C 21.6 °C 20000 m 0   0 cm 6 min 84.2 W/m² 1024 hPa
08:48 17.5 °C 11.5 °C 68 % 7 km/h (11 km/h) 0 mm0 mm 19.8 °C 20.4 °C 22.4 °C 21.6 °C 20000 m 0   0 cm 6 min 78 W/m² 1023.9 hPa
08:42 17.2 °C 11.5 °C 69 % 6 km/h (10 km/h) 0 mm0 mm 19.9 °C 20.4 °C 22.4 °C 21.6 °C 20000 m 0   0 cm 6 min 71.8 W/m² 1023.8 hPa
08:36 16.9 °C 11.8 °C 72 % 7 km/h (10 km/h) 0 mm0 mm 19.9 °C 20.5 °C 22.4 °C 21.6 °C 20000 m 0   0 cm 6 min 65.8 W/m² 1023.6 hPa
08:30 16.7 °C 11.6 °C 72 % 8 km/h (10 km/h) 0 mm0 mm 19.9 °C 20.5 °C 22.4 °C 21.7 °C 19800 m 0   0 cm 6 min 59.8 W/m² 1023.7 hPa
08:24 16.3 °C 11.2 °C 72 % 7 km/h (10 km/h) 0 mm0 mm 19.9 °C 20.5 °C 22.4 °C 21.6 °C 20000 m 0   0 cm 6 min 53.1 W/m² 1023.7 hPa
08:18 16 °C 11.6 °C 75 % 8 km/h (10 km/h) 0 mm0 mm 19.9 °C 20.5 °C 22.4 °C 21.6 °C 20000 m 0   0 cm 6 min 47.8 W/m² 1023.8 hPa
08:12 15.6 °C 11.4 °C 76 % 7 km/h (10 km/h) 0 mm0 mm 20 °C 20.6 °C 22.4 °C 21.6 °C 20000 m 0   0 cm 6 min 41.2 W/m² 1023.7 hPa
08:06 15.4 °C 11.4 °C 77 % 5 km/h (8 km/h) 0 mm0 mm 20 °C 20.6 °C 22.4 °C 21.6 °C 20000 m 0   0 cm 6 min 34.8 W/m² 1023.8 hPa
08:00 15 °C 11.4 °C 79 % 4 km/h (6 km/h) 0 mm0 mm 20 °C 20.6 °C 22.4 °C 21.6 °C 20000 m 0   0 cm 6 min 30.7 W/m² 1023.9 hPa
07:54 14.8 °C 11.2 °C 79 % 4 km/h (5 km/h) 0 mm0 mm 20 °C 20.7 °C 22.4 °C 21.6 °C 20000 m 0   0 cm 6 min 25.9 W/m² 1023.8 hPa
07:48 14.4 °C 11 °C 80 % 5 km/h (6 km/h) 0 mm0 mm 20 °C 20.7 °C 22.4 °C 21.6 °C 20000 m 0   0 cm 6 min 21.1 W/m² 1023.8 hPa
07:42 14.2 °C 11 °C 81 % 5 km/h (8 km/h) 0 mm0 mm 20.1 °C 20.7 °C 22.4 °C 21.6 °C 20000 m 0   0 cm 6 min 16.3 W/m² 1023.7 hPa
07:36 13.9 °C 10.7 °C 81 % 7 km/h (12 km/h) 0 mm0 mm 20.1 °C 20.8 °C 22.4 °C 21.6 °C 20000 m 0   0 cm 5 min 9.7 W/m² 1023.5 hPa
07:30 13.7 °C 10.7 °C 82 % 10 km/h (13 km/h) 0 mm0 mm 20.2 °C 20.8 °C 22.4 °C 21.6 °C 20000 m 0   0 cm 0 min 0 W/m² 1023.3 hPa
07:24 13.7 °C 10.7 °C 82 % 11 km/h (13 km/h) 0 mm0 mm 20.2 °C 20.8 °C 22.4 °C 21.6 °C 20000 m 0   0 cm 0 min 0 W/m² 1023.3 hPa
07:18 13.5 °C 10.7 °C 83 % 11 km/h (13 km/h) 0 mm0 mm 20.2 °C 20.8 °C 22.4 °C 21.6 °C 20000 m 0   0 cm 0 min 0 W/m² 1023.3 hPa
07:12 13.5 °C 10.8 °C 84 % 9 km/h (12 km/h) 0 mm0 mm 20.2 °C 20.9 °C 22.4 °C 21.6 °C 20000 m 0   0 cm 0 min 0 W/m² 1023.4 hPa
07:06 13.3 °C 10.7 °C 84 % 8 km/h (10 km/h) 0 mm0 mm 20.3 °C 20.9 °C 22.4 °C 21.6 °C 20000 m 0   0 cm 0 min 0 W/m² 1023.3 hPa
07:00 13.4 °C 10.7 °C 84 % 8 km/h (9 km/h) 0 mm0 mm 20.4 °C 20.9 °C 22.4 °C 21.6 °C 20000 m 0   0 cm 0 min 0 W/m² 1023.2 hPa
06:54 13.4 °C 10.7 °C 84 % 9 km/h (11 km/h) 0 mm0 mm 20.4 °C 21 °C 22.4 °C 21.6 °C 20000 m 0   0 cm 0 min 0 W/m² 1023.4 hPa
06:48 13.3 °C 10.8 °C 85 % 8 km/h (11 km/h) 0 mm0 mm 20.4 °C 21 °C 22.5 °C 21.6 °C 20000 m 0   0 cm 0 min 0 W/m² 1023.4 hPa
06:42 13.3 °C 10.7 °C 84 % 7 km/h (9 km/h) 0 mm0 mm 20.5 °C 21 °C 22.5 °C 21.6 °C 20000 m 0   0 cm 0 min 0 W/m² 1023.6 hPa
06:36 13.5 °C 10.8 °C 84 % 8 km/h (9 km/h) 0 mm0 mm 20.5 °C 21.1 °C 22.5 °C 21.6 °C 20000 m 0   0 cm 0 min 0 W/m² 1023.6 hPa
06:30 13.6 °C 10.8 °C 83 % 9 km/h (12 km/h) 0 mm0 mm 20.5 °C 21.1 °C 22.5 °C 21.6 °C 20000 m 0   0 cm 0 min 0 W/m² 1023.6 hPa
06:24 13.7 °C 10.9 °C 83 % 10 km/h (12 km/h) 0 mm0 mm 20.6 °C 21.2 °C 22.5 °C 21.6 °C 20000 m 0   0 cm 0 min 0 W/m² 1023.3 hPa
06:18 13.3 °C 10.8 °C 85 % 9 km/h (12 km/h) 0 mm0 mm 20.6 °C 21.2 °C 22.5 °C 21.6 °C 20000 m 0   0 cm 0 min 0 W/m² 1023.3 hPa
06:12 12.6 °C 10.7 °C 88 % 7 km/h (9 km/h) 0 mm0 mm 20.6 °C 21.2 °C 22.5 °C 21.6 °C 20000 m 0   0 cm 0 min 0 W/m² 1023.3 hPa
06:06 12.4 °C 10.5 °C 88 % 7 km/h (9 km/h) 0 mm0 mm 20.7 °C 21.3 °C 22.5 °C 21.6 °C 20000 m 0   0 cm 0 min 0 W/m² 1023.4 hPa
06:00 12.5 °C 10.6 °C 88 % 5 km/h (9 km/h) 0 mm0 mm 20.7 °C 21.3 °C 22.4 °C 21.6 °C 20000 m 0   0 cm 0 min 0 W/m² 1023.3 hPa
05:54 12.8 °C 10.5 °C 86 % 4 km/h (5 km/h) 0 mm0 mm 20.7 °C 21.3 °C 22.4 °C 21.6 °C 20000 m 0   0 cm 0 min 0 W/m² 1023.2 hPa
05:48 13 °C 10.4 °C 84 % 3 km/h (5 km/h) 0 mm0 mm 20.8 °C 21.4 °C 22.5 °C 21.6 °C 20000 m 0   0 cm 0 min 0 W/m² 1023.2 hPa
05:42 13.2 °C 10.4 °C 83 % 3 km/h (4 km/h) 0 mm0 mm 20.8 °C 21.4 °C 22.5 °C 21.6 °C 20000 m 0   0 cm 0 min 0 W/m² 1023.2 hPa
05:36 13.5 °C 10.3 °C 81 % 4 km/h (11 km/h) 0 mm0 mm 20.8 °C 21.4 °C 22.5 °C 21.6 °C 20000 m 0   0 cm 0 min 0 W/m² 1023.2 hPa
05:30 13.9 °C 10.7 °C 81 % 8 km/h (11 km/h) 0 mm0 mm 20.9 °C 21.5 °C 22.5 °C 21.6 °C 20000 m 0   0 cm 0 min 0 W/m² 1023.2 hPa
05:24 14 °C 10.8 °C 81 % 8 km/h (10 km/h) 0 mm0 mm 20.9 °C 21.5 °C 22.5 °C 21.6 °C 20000 m 0   0 cm 0 min 0 W/m² 1023.1 hPa
05:18 14 °C 10.8 °C 81 % 7 km/h (9 km/h) 0 mm0 mm 20.9 °C 21.5 °C 22.5 °C 21.6 °C 20000 m 0   0 cm 0 min 0 W/m² 1023.1 hPa
05:12 14.3 °C 10.7 °C 79 % 6 km/h (9 km/h) 0 mm0 mm 21 °C 21.6 °C 22.5 °C 21.6 °C 20000 m 0   0 cm 0 min 0 W/m² 1023 hPa
05:06 14.1 °C 10.7 °C 80 % 5 km/h (7 km/h) 0 mm0 mm 21 °C 21.6 °C 22.5 °C 21.6 °C 20000 m 0   0 cm 0 min 0 W/m² 1023.1 hPa
05:00 14.1 °C 10.7 °C 80 % 6 km/h (8 km/h) 0 mm0 mm 21.1 °C 21.7 °C 22.5 °C 21.6 °C 20000 m 0   0 cm 0 min 0 W/m² 1023 hPa
04:54 14.2 °C 10.8 °C 80 % 8 km/h (10 km/h) 0 mm0 mm 21.1 °C 21.7 °C 22.5 °C 21.6 °C 20000 m 0   0 cm 0 min 0 W/m² 1023 hPa
04:48 14.1 °C 10.9 °C 81 % 8 km/h (10 km/h) 0 mm0 mm 21.2 °C 21.7 °C 22.5 °C 21.6 °C 20000 m 0   0 cm 0 min 0 W/m² 1023 hPa
04:42 14.1 °C 11.1 °C 82 % 7 km/h (9 km/h) 0 mm0 mm 21.2 °C 21.8 °C 22.5 °C 21.6 °C 20000 m 0   0 cm 0 min 0 W/m² 1023 hPa
04:36 13.9 °C 10.7 °C 81 % 7 km/h (9 km/h) 0 mm0 mm 21.2 °C 21.8 °C 22.5 °C 21.6 °C 20000 m 0   0 cm 0 min 0 W/m² 1022.9 hPa
04:30 14.1 °C 10.7 °C 80 % 8 km/h (10 km/h) 0 mm0 mm 21.3 °C 21.8 °C 22.5 °C 21.6 °C 20000 m 0   0 cm 0 min 0 W/m² 1022.9 hPa
04:24 14.2 °C 11 °C 81 % 8 km/h (10 km/h) 0 mm0 mm 21.3 °C 21.9 °C 22.5 °C 21.6 °C 20000 m 0   0 cm 0 min 0 W/m² 1022.9 hPa
04:18 14.1 °C 10.9 °C 81 % 8 km/h (10 km/h) 0 mm0 mm 21.4 °C 21.9 °C 22.5 °C 21.6 °C 20000 m 0   0 cm 0 min 0 W/m² 1022.8 hPa
04:12 13.9 °C 10.7 °C 81 % 6 km/h (9 km/h) 0 mm0 mm 21.4 °C 21.9 °C 22.5 °C 21.6 °C 20000 m 0   0 cm 0 min 0 W/m² 1022.9 hPa
04:06 14.1 °C 10.9 °C 81 % 7 km/h (8 km/h) 0 mm0 mm 21.5 °C 22 °C 22.4 °C 21.6 °C 20000 m 0   0 cm 0 min 0 W/m² 1023 hPa
04:00 14.1 °C 10.7 °C 80 % 7 km/h (9 km/h) 0 mm0 mm 21.5 °C 22.1 °C 22.5 °C 21.6 °C 20000 m 0   0 cm 0 min 0 W/m² 1023 hPa
03:54 14.3 °C 10.5 °C 78 % 5 km/h (9 km/h) 0 mm0 mm 21.5 °C 22.1 °C 22.5 °C 21.6 °C 20000 m 0   0 cm 0 min 0 W/m² 1022.9 hPa
03:48 14.2 °C 10.4 °C 78 % 4 km/h (6 km/h) 0 mm0 mm 21.6 °C 22.1 °C 22.5 °C 21.6 °C 20000 m 0   0 cm 0 min 0 W/m² 1022.9 hPa
03:42 14.3 °C 10.7 °C 79 % 5 km/h (6 km/h) 0 mm0 mm 21.7 °C 22.2 °C 22.5 °C 21.6 °C 20000 m 0   0 cm 0 min 0 W/m² 1022.9 hPa
03:36 14.3 °C 10.5 °C 78 % 5 km/h (6 km/h) 0 mm0 mm 21.7 °C 22.2 °C 22.5 °C 21.6 °C 20000 m 0   0 cm 0 min 0 W/m² 1023 hPa
03:30 14.3 °C 10.9 °C 80 % 5 km/h (6 km/h) 0 mm0 mm 21.7 °C 22.2 °C 22.4 °C 21.6 °C 20000 m 0   0 cm 0 min 0 W/m² 1023 hPa
03:24 14.5 °C 10.9 °C 79 % 5 km/h (8 km/h) 0 mm0 mm 21.8 °C 22.3 °C 22.4 °C 21.6 °C 20000 m 0   0 cm 0 min 0 W/m² 1022.9 hPa
03:18 14.7 °C 10.7 °C 77 % 7 km/h (8 km/h) 0 mm0 mm 21.8 °C 22.3 °C 22.4 °C 21.6 °C 20000 m 0   0 cm 0 min 0 W/m² 1022.9 hPa
03:12 14.4 °C 10.6 °C 78 % 7 km/h (8 km/h) 0 mm0 mm 21.8 °C 22.4 °C 22.5 °C 21.6 °C 20000 m 0   0 cm 0 min 0 W/m² 1022.9 hPa
03:06 14.5 °C 10.7 °C 78 % 6 km/h (8 km/h) 0 mm0 mm 21.9 °C 22.4 °C 22.4 °C 21.6 °C 20000 m 0   0 cm 0 min 0 W/m² 1022.9 hPa
03:00 14.1 °C 10.9 °C 81 % 6 km/h (8 km/h) 0 mm0 mm 21.9 °C 22.5 °C 22.4 °C 21.7 °C 20000 m 0   0 cm 0 min 0 W/m² 1022.9 hPa
02:54 13.6 °C 10.9 °C 84 % 7 km/h (9 km/h) 0 mm0 mm 22 °C 22.5 °C 22.4 °C 21.6 °C 20000 m 0   0 cm 0 min 0 W/m² 1022.9 hPa
02:48 13.4 °C 10.9 °C 85 % 6 km/h (8 km/h) 0 mm0 mm 22.1 °C 22.5 °C 22.4 °C 21.6 °C 20000 m 0   0 cm 0 min 0 W/m² 1023 hPa
02:42 13.3 °C 11.2 °C 87 % 4 km/h (8 km/h) 0 mm0 mm 22.1 °C 22.6 °C 22.4 °C 21.6 °C 20000 m 0   0 cm 0 min 0 W/m² 1023.1 hPa
02:36 13.5 °C 11.2 °C 86 % 3 km/h (4 km/h) 0 mm0 mm 22.2 °C 22.6 °C 22.4 °C 21.6 °C 20000 m 0   0 cm 0 min 0 W/m² 1023.2 hPa
02:30 13.7 °C 11 °C 84 % 3 km/h (4 km/h) 0 mm0 mm 22.2 °C 22.6 °C 22.4 °C 21.6 °C 20000 m 0   0 cm 0 min 0 W/m² 1023.1 hPa
02:24 13.8 °C 11.1 °C 84 % 3 km/h (4 km/h) 0 mm0 mm 22.2 °C 22.7 °C 22.4 °C 21.6 °C 20000 m 0   0 cm 0 min 0 W/m² 1023.1 hPa
02:18 14 °C 11.3 °C 84 % 3 km/h (3 km/h) 0 mm0 mm 22.3 °C 22.7 °C 22.4 °C 21.6 °C 20000 m 0   0 cm 0 min 0 W/m² 1023.1 hPa
02:12 14.2 °C 11.4 °C 83 % 3 km/h (4 km/h) 0 mm0 mm 22.3 °C 22.8 °C 22.4 °C 21.6 °C 20000 m 0   0 cm 0 min 0 W/m² 1023.1 hPa
02:06 14.4 °C 11.2 °C 81 % 3 km/h (5 km/h) 0 mm0 mm 22.4 °C 22.8 °C 22.4 °C 21.6 °C 20000 m 0   0 cm 0 min 0 W/m² 1023 hPa
02:00 14.3 °C 11.1 °C 81 % 4 km/h (5 km/h) 0 mm0 mm 22.5 °C 22.9 °C 22.4 °C 21.6 °C 20000 m 0   0 cm 0 min 0 W/m² 1023 hPa
01:54 14.2 °C 11.5 °C 84 % 4 km/h (5 km/h) 0 mm0 mm 22.5 °C 22.9 °C 22.4 °C 21.6 °C 20000 m 0   0 cm 0 min 0 W/m² 1023 hPa
01:48 14.4 °C 11.4 °C 82 % 3 km/h (4 km/h) 0 mm0 mm 22.5 °C 23 °C 22.4 °C 21.6 °C 20000 m 0   0 cm 0 min 0 W/m² 1023 hPa
01:42 14.5 °C 11.1 °C 80 % 3 km/h (3 km/h) 0 mm0 mm 22.6 °C 23 °C 22.4 °C 21.6 °C 20000 m 0   0 cm 0 min 0 W/m² 1023.1 hPa
01:36 14.5 °C 11.3 °C 81 % 0 km/h (3 km/h) 0 mm0 mm 22.6 °C 23 °C 22.3 °C 21.6 °C 20000 m 0   0 cm 0 min 0 W/m² 1023.1 hPa
01:30 14.6 °C 11.4 °C 81 % 0 km/h (3 km/h) 0 mm0 mm 22.7 °C 23.1 °C 22.3 °C 21.6 °C 20000 m 0   0 cm 0 min 0 W/m² 1023.1 hPa
01:24 14.7 °C 11.5 °C 81 % 2 km/h (3 km/h) 0 mm0 mm 22.8 °C 23.1 °C 22.4 °C 21.6 °C 20000 m 0   0 cm 0 min 0 W/m² 1023.2 hPa
01:18 14.9 °C 11.5 °C 80 % 2 km/h (3 km/h) 0 mm0 mm 22.8 °C 23.2 °C 22.3 °C 21.6 °C 20000 m 0   0 cm 0 min 0 W/m² 1023.2 hPa
01:12 15 °C 11.4 °C 79 % 3 km/h (3 km/h) 0 mm0 mm 22.9 °C 23.2 °C 22.3 °C 21.6 °C 20000 m 0   0 cm 0 min 0 W/m² 1023.2 hPa
01:06 15 °C 11.4 °C 79 % 3 km/h (4 km/h) 0 mm0 mm 22.9 °C 23.3 °C 22.3 °C 21.7 °C 20000 m 0   0 cm 0 min 0 W/m² 1023.2 hPa
01:00 14.9 °C 11.7 °C 81 % 2 km/h (4 km/h) 0 mm0 mm 23 °C 23.3 °C 22.3 °C 21.6 °C 20000 m 0   0 cm 0 min 0 W/m² 1023.2 hPa
00:54 14.8 °C 11.6 °C 81 % 0 km/h (2 km/h) 0 mm0 mm 23 °C 23.3 °C 22.3 °C 21.6 °C 20000 m 0   0 cm 0 min 0 W/m² 1023.2 hPa
00:48 14.8 °C 11.6 °C 81 % 0 km/h (3 km/h) 0 mm0 mm 23.1 °C 23.4 °C 22.3 °C 21.6 °C 20000 m 0   0 cm 0 min 0 W/m² 1023.2 hPa
00:42 14.9 °C 11.7 °C 81 % 3 km/h (5 km/h) 0 mm0 mm 23.1 °C 23.4 °C 22.3 °C 21.6 °C 20000 m 0   0 cm 0 min 0 W/m² 1023.2 hPa
00:36 15.1 °C 11.9 °C 81 % 4 km/h (5 km/h) 0 mm0 mm 23.2 °C 23.5 °C 22.3 °C 21.6 °C 20000 m 0   0 cm 0 min 0 W/m² 1023.1 hPa
00:30 15.4 °C 11.8 °C 79 % 4 km/h (5 km/h) 0 mm0 mm 23.2 °C 23.5 °C 22.3 °C 21.6 °C 20000 m 0   0 cm 0 min 0 W/m² 1023.1 hPa
00:24 15.6 °C 11.8 °C 78 % 3 km/h (5 km/h) 0 mm0 mm 23.3 °C 23.6 °C 22.3 °C 21.6 °C 20000 m 0   0 cm 0 min 0 W/m² 1023 hPa
00:18 15.8 °C 11.8 °C 77 % 3 km/h (5 km/h) 0 mm0 mm 23.3 °C 23.6 °C 22.3 °C 21.6 °C 20000 m 0   0 cm 0 min 0 W/m² 1023.1 hPa
00:12 16.1 °C 11.9 °C 76 % 3 km/h (5 km/h) 0 mm0 mm 23.4 °C 23.6 °C 22.3 °C 21.6 °C 20000 m 0   0 cm 0 min 0 W/m² 1023 hPa
00:06 16.3 °C 11.2 °C 72 % 3 km/h (4 km/h) 0 mm0 mm 23.4 °C 23.7 °C 22.2 °C 21.6 °C 20000 m 0   0 cm 0 min 0 W/m² 1023 hPa
00:00 16.4 °C 11.8 °C 74 % 3 km/h (4 km/h) 0 mm0 mm 23.5 °C 23.8 °C 22.3 °C 21.7 °C 20000 m 0   0 cm 0 min 0 W/m² 1022.9 hPa

Données via Météo-France

Relevés météo à Auxerre-Perrigny

Cette page rassemble les observations de la station de Auxerre-Perrigny : température, humidité, vent, précipitations et pression atmosphérique. Les graphiques facilitent le suivi de la journée, tandis que le tableau donne accès aux mesures horaires et infra-horaires disponibles.

Pour replacer ces mesures dans leur contexte, consultez la climatologie de Auxerre-Perrigny. Retrouvez aussi la carte des observations météo en temps réel.